ITY6KC KJFK-LIRF
Flight info
| Callsign | ITY6KC |
|---|---|
| Flight time | N/A |
| Altitude | 37000 |
| Route | HAPIE DCT YAHOO DCT KANNI N343B JOOPY/M081F380 DCT 49N050W 51N040W 52N030W 52N020W DCT DINIM DCT ELSOX/M082F390 DCT TAKAS/N0474F390 DCT ALUTA DCT KORER DCT LEMKA DCT BEBIX/N0464F400 DCT VALKU/N0462F390 DCT TIS DCT MEBAK DCT GIPNO DCT BALSI DCT OBIGO DCT ROBEX DCT LAPRI/N0460F400 DCT MOGBO/N0459F390 DCT ELB/N0458F400 DCT ELKAP |
| Aircraft | A339/H-SADE1E2E3GHIJ1J3J5M1P2RWXY/LB2D1 |
Departure
| Time | 2026-05-09 11:59 |
|---|---|
| Airport | John F. Kennedy International Airport (KJFK) |
Arrival
| Time | N/A |
|---|---|
| Airport | Rome–Fiumicino Leonardo da Vinci International Airport (LIRF) |
| Time | Latitude | Longitude | Altitude | Speed | Heading |
|---|---|---|---|---|---|
| 2026-05-09 11:23 | 40.64286 | -73.79206 | 30 ft | 0 kts | 105° |
| 2026-05-09 11:44 | 40.64286 | -73.79207 | 30 ft | 0 kts | 105° |
| 2026-05-09 11:45 | 40.64286 | -73.79208 | 30 ft | 1 kts | 105° |
| 2026-05-09 11:45 | 40.64290 | -73.79226 | 30 ft | 2 kts | 105° |
| 2026-05-09 11:45 | 40.64294 | -73.79245 | 30 ft | 2 kts | 105° |
| 2026-05-09 11:45 | 40.64297 | -73.79264 | 30 ft | 2 kts | 106° |
| 2026-05-09 11:46 | 40.64304 | -73.79282 | 30 ft | 2 kts | 134° |
| 2026-05-09 11:46 | 40.64317 | -73.79295 | 30 ft | 2 kts | 156° |
| 2026-05-09 11:46 | 40.64331 | -73.79300 | 30 ft | 2 kts | 179° |
| 2026-05-09 11:46 | 40.64340 | -73.79299 | 30 ft | 1 kts | 191° |
| 2026-05-09 11:47 | 40.64343 | -73.79298 | 30 ft | 0 kts | 190° |
| 2026-05-09 11:50 | 40.64335 | -73.79300 | 30 ft | 2 kts | 191° |
| 2026-05-09 11:50 | 40.64314 | -73.79312 | 30 ft | 5 kts | 207° |
| 2026-05-09 11:50 | 40.64275 | -73.79350 | 30 ft | 8 kts | 221° |
| 2026-05-09 11:50 | 40.64229 | -73.79415 | 30 ft | 10 kts | 239° |
| 2026-05-09 11:51 | 40.64249 | -73.79489 | 30 ft | 9 kts | 335° |
| 2026-05-09 11:51 | 40.64315 | -73.79491 | 30 ft | 10 kts | 359° |
| 2026-05-09 11:51 | 40.64402 | -73.79492 | 30 ft | 14 kts | 358° |
| 2026-05-09 11:51 | 40.64518 | -73.79505 | 30 ft | 18 kts | 353° |
| 2026-05-09 11:52 | 40.64650 | -73.79569 | 30 ft | 21 kts | 326° |
| 2026-05-09 11:52 | 40.64783 | -73.79686 | 30 ft | 23 kts | 336° |
| 2026-05-09 11:52 | 40.64939 | -73.79704 | 30 ft | 22 kts | 1° |
| 2026-05-09 11:52 | 40.65075 | -73.79614 | 30 ft | 22 kts | 58° |
| 2026-05-09 11:53 | 40.65157 | -73.79427 | 30 ft | 24 kts | 61° |
| 2026-05-09 11:53 | 40.65205 | -73.79208 | 30 ft | 25 kts | 102° |
| 2026-05-09 11:53 | 40.65151 | -73.78979 | 30 ft | 26 kts | 105° |
| 2026-05-09 11:53 | 40.65153 | -73.78737 | 30 ft | 26 kts | 69° |
| 2026-05-09 11:54 | 40.65236 | -73.78536 | 30 ft | 17 kts | 60° |
| 2026-05-09 11:54 | 40.65313 | -73.78439 | 30 ft | 15 kts | 26° |
| 2026-05-09 11:54 | 40.65400 | -73.78365 | 30 ft | 14 kts | 50° |
| 2026-05-09 11:54 | 40.65454 | -73.78247 | 30 ft | 15 kts | 60° |
| 2026-05-09 11:55 | 40.65483 | -73.78109 | 30 ft | 15 kts | 104° |
| 2026-05-09 11:56 | 40.65106 | -73.77264 | 30 ft | 25 kts | 120° |
| 2026-05-09 11:56 | 40.65015 | -73.77058 | 30 ft | 26 kts | 122° |
| 2026-05-09 11:56 | 40.64917 | -73.76846 | 30 ft | 24 kts | 121° |
| 2026-05-09 11:57 | 40.64874 | -73.76721 | 30 ft | 10 kts | 75° |
| 2026-05-09 11:57 | 40.64928 | -73.76653 | 30 ft | 11 kts | 31° |
| 2026-05-09 11:57 | 40.65004 | -73.76592 | 30 ft | 14 kts | 30° |
| 2026-05-09 11:57 | 40.65091 | -73.76520 | 30 ft | 12 kts | 44° |
| 2026-05-09 11:58 | 40.65090 | -73.76440 | 30 ft | 8 kts | 121° |
| 2026-05-09 11:58 | 40.65059 | -73.76365 | 30 ft | 8 kts | 118° |
| 2026-05-09 11:58 | 40.65020 | -73.76357 | 30 ft | 7 kts | 205° |
| 2026-05-09 11:58 | 40.64940 | -73.76418 | 30 ft | 33 kts | 210° |
| 2026-05-09 11:59 | 40.64544 | -73.76728 | 30 ft | 95 kts | 211° |
| 2026-05-09 11:59 | 40.63816 | -73.77299 | 30 ft | 146 kts | 211° |
| 2026-05-09 11:59 | 40.62836 | -73.78078 | 144 ft | 177 kts | 212° |
| 2026-05-09 11:59 | 40.61778 | -73.78929 | 727 ft | 176 kts | 210° |
| 2026-05-09 12:00 | 40.60755 | -73.79747 | 1431 ft | 172 kts | 212° |
| 2026-05-09 12:00 | 40.59743 | -73.80569 | 1989 ft | 177 kts | 212° |
| 2026-05-09 12:00 | 40.58644 | -73.81440 | 2288 ft | 191 kts | 212° |
| 2026-05-09 12:00 | 40.57407 | -73.82282 | 2556 ft | 208 kts | 196° |
| 2026-05-09 12:01 | 40.55885 | -73.82240 | 2842 ft | 233 kts | 165° |
| 2026-05-09 12:01 | 40.54465 | -73.81027 | 3151 ft | 261 kts | 135° |
| 2026-05-09 12:01 | 40.53645 | -73.78825 | 3659 ft | 279 kts | 109° |
| 2026-05-09 12:01 | 40.53171 | -73.76356 | 4334 ft | 280 kts | 108° |
| 2026-05-09 12:02 | 40.52711 | -73.73852 | 4992 ft | 282 kts | 108° |
| 2026-05-09 12:02 | 40.52251 | -73.71329 | 5622 ft | 284 kts | 108° |
| 2026-05-09 12:02 | 40.51792 | -73.68810 | 6229 ft | 287 kts | 108° |
| 2026-05-09 12:02 | 40.51325 | -73.66243 | 6844 ft | 290 kts | 108° |
| 2026-05-09 12:03 | 40.50851 | -73.63659 | 7435 ft | 293 kts | 108° |
| 2026-05-09 12:03 | 40.50372 | -73.61055 | 8014 ft | 297 kts | 108° |
| 2026-05-09 12:03 | 40.49890 | -73.58437 | 8607 ft | 299 kts | 108° |
| 2026-05-09 12:03 | 40.49394 | -73.55750 | 9197 ft | 303 kts | 109° |
| 2026-05-09 12:04 | 40.48891 | -73.53042 | 9780 ft | 306 kts | 108° |
| 2026-05-09 12:04 | 40.48386 | -73.50331 | 10312 ft | 312 kts | 108° |
| 2026-05-09 12:04 | 40.47852 | -73.47477 | 10618 ft | 326 kts | 108° |
| 2026-05-09 12:04 | 40.47303 | -73.44548 | 10881 ft | 341 kts | 108° |
| 2026-05-09 12:05 | 40.46724 | -73.41442 | 11151 ft | 356 kts | 107° |
| 2026-05-09 12:05 | 40.46124 | -73.38216 | 11410 ft | 370 kts | 107° |
| 2026-05-09 12:05 | 40.45502 | -73.34875 | 11673 ft | 384 kts | 107° |
| 2026-05-09 12:05 | 40.44863 | -73.31443 | 12110 ft | 392 kts | 107° |
| 2026-05-09 12:06 | 40.44207 | -73.27921 | 12685 ft | 396 kts | 107° |
| 2026-05-09 12:06 | 40.43557 | -73.24435 | 13232 ft | 400 kts | 107° |
| 2026-05-09 12:06 | 40.42891 | -73.20885 | 13766 ft | 404 kts | 106° |
| 2026-05-09 12:06 | 40.42211 | -73.17254 | 14298 ft | 409 kts | 106° |
| 2026-05-09 12:07 | 40.41531 | -73.13635 | 14803 ft | 413 kts | 106° |
| 2026-05-09 12:07 | 40.40834 | -73.09937 | 15301 ft | 418 kts | 107° |
| 2026-05-09 12:07 | 40.40134 | -73.06233 | 15817 ft | 422 kts | 106° |
| 2026-05-09 12:07 | 40.39434 | -73.02504 | 16327 ft | 426 kts | 105° |
| 2026-05-09 12:08 | 40.39056 | -72.98594 | 16796 ft | 435 kts | 91° |
| 2026-05-09 12:08 | 40.39365 | -72.94637 | 17285 ft | 440 kts | 77° |
| 2026-05-09 12:08 | 40.40181 | -72.90783 | 17794 ft | 443 kts | 72° |
| 2026-05-09 12:08 | 40.41102 | -72.86893 | 18275 ft | 447 kts | 71° |
| 2026-05-09 12:09 | 40.42031 | -72.82989 | 18733 ft | 452 kts | 71° |
| 2026-05-09 12:09 | 40.42956 | -72.79044 | 19205 ft | 457 kts | 72° |
| 2026-05-09 12:09 | 40.43883 | -72.75015 | 19706 ft | 460 kts | 72° |
| 2026-05-09 12:10 | 40.46639 | -72.62813 | 21114 ft | 470 kts | 72° |
| 2026-05-09 12:10 | 40.47551 | -72.58733 | 21562 ft | 473 kts | 72° |
| 2026-05-09 12:10 | 40.48474 | -72.54597 | 21999 ft | 476 kts | 71° |
| 2026-05-09 12:11 | 40.49414 | -72.50377 | 22420 ft | 480 kts | 72° |
| 2026-05-09 12:11 | 40.50341 | -72.46207 | 22815 ft | 483 kts | 72° |
| 2026-05-09 12:11 | 40.51291 | -72.41927 | 23223 ft | 486 kts | 71° |
| 2026-05-09 12:11 | 40.52226 | -72.37692 | 23608 ft | 489 kts | 71° |
| 2026-05-09 12:12 | 40.53179 | -72.33383 | 24020 ft | 492 kts | 72° |
| 2026-05-09 12:12 | 40.54139 | -72.29037 | 24394 ft | 495 kts | 72° |
| 2026-05-09 12:12 | 40.55095 | -72.24683 | 24753 ft | 498 kts | 72° |
| 2026-05-09 12:12 | 40.56058 | -72.20304 | 25099 ft | 501 kts | 72° |
| 2026-05-09 12:13 | 40.57023 | -72.15900 | 25456 ft | 503 kts | 72° |
| 2026-05-09 12:13 | 40.57975 | -72.11536 | 25808 ft | 505 kts | 72° |
| 2026-05-09 12:13 | 40.58947 | -72.07087 | 26159 ft | 508 kts | 72° |
| 2026-05-09 12:13 | 40.59924 | -72.02598 | 26453 ft | 512 kts | 72° |
| 2026-05-09 12:14 | 40.60903 | -71.98093 | 26778 ft | 514 kts | 72° |
| 2026-05-09 12:14 | 40.61884 | -71.93574 | 27096 ft | 516 kts | 72° |
| 2026-05-09 12:14 | 40.62857 | -71.89076 | 27434 ft | 518 kts | 72° |
| 2026-05-09 12:14 | 40.63845 | -71.84491 | 27732 ft | 521 kts | 72° |
| 2026-05-09 12:15 | 40.64838 | -71.79887 | 28019 ft | 524 kts | 72° |
| 2026-05-09 12:15 | 40.65826 | -71.75294 | 28339 ft | 525 kts | 72° |
| 2026-05-09 12:15 | 40.66810 | -71.70710 | 28603 ft | 528 kts | 72° |
| 2026-05-09 12:15 | 40.67809 | -71.66042 | 28882 ft | 531 kts | 72° |
| 2026-05-09 12:16 | 40.68812 | -71.61351 | 29148 ft | 533 kts | 72° |
| 2026-05-09 12:16 | 40.69810 | -71.56652 | 29540 ft | 533 kts | 72° |
| 2026-05-09 12:16 | 40.70807 | -71.51970 | 29951 ft | 532 kts | 72° |
| 2026-05-09 12:16 | 40.71787 | -71.47336 | 30376 ft | 530 kts | 72° |
| 2026-05-09 12:17 | 40.72786 | -71.42619 | 30736 ft | 530 kts | 72° |
| 2026-05-09 12:17 | 40.73766 | -71.37985 | 31061 ft | 530 kts | 72° |
| 2026-05-09 12:17 | 40.74759 | -71.33276 | 31401 ft | 530 kts | 72° |
| 2026-05-09 12:17 | 40.75744 | -71.28597 | 31719 ft | 529 kts | 72° |
| 2026-05-09 12:18 | 40.76722 | -71.23948 | 32005 ft | 530 kts | 72° |
| 2026-05-09 12:18 | 40.77704 | -71.19253 | 32316 ft | 529 kts | 72° |
| 2026-05-09 12:18 | 40.78666 | -71.14629 | 32668 ft | 528 kts | 72° |
| 2026-05-09 12:18 | 40.79641 | -71.09963 | 32992 ft | 527 kts | 71° |
| 2026-05-09 12:19 | 40.80612 | -71.05303 | 33324 ft | 525 kts | 71° |
| 2026-05-09 12:19 | 40.81572 | -71.00678 | 33627 ft | 525 kts | 72° |
| 2026-05-09 12:19 | 40.82535 | -70.96043 | 33913 ft | 524 kts | 72° |
| 2026-05-09 12:19 | 40.83492 | -70.91418 | 34233 ft | 523 kts | 71° |
| 2026-05-09 12:20 | 40.84442 | -70.86807 | 34533 ft | 521 kts | 71° |
| 2026-05-09 12:20 | 40.85383 | -70.82220 | 34786 ft | 520 kts | 71° |
| 2026-05-09 12:20 | 40.86328 | -70.77625 | 35002 ft | 519 kts | 71° |
| 2026-05-09 12:20 | 40.87270 | -70.73029 | 35134 ft | 520 kts | 71° |
| 2026-05-09 12:21 | 40.88220 | -70.68405 | 35249 ft | 522 kts | 71° |
| 2026-05-09 12:21 | 40.89158 | -70.63815 | 35370 ft | 524 kts | 72° |
| 2026-05-09 12:21 | 40.90103 | -70.59160 | 35494 ft | 525 kts | 72° |
| 2026-05-09 12:22 | 40.91988 | -70.49869 | 35693 ft | 528 kts | 72° |
| 2026-05-09 12:22 | 40.92941 | -70.45146 | 35804 ft | 529 kts | 72° |
| 2026-05-09 12:22 | 40.93881 | -70.40475 | 35921 ft | 529 kts | 72° |
| 2026-05-09 12:23 | 40.95773 | -70.31046 | 36091 ft | 533 kts | 73° |
| 2026-05-09 12:23 | 40.97669 | -70.21575 | 36293 ft | 536 kts | 72° |
| 2026-05-09 12:23 | 40.98608 | -70.16855 | 36428 ft | 536 kts | 73° |
| 2026-05-09 12:24 | 40.99561 | -70.12077 | 36563 ft | 537 kts | 72° |
| 2026-05-09 12:24 | 41.00507 | -70.07307 | 36692 ft | 538 kts | 73° |
| 2026-05-09 12:24 | 41.01454 | -70.02505 | 36805 ft | 539 kts | 72° |
| 2026-05-09 12:24 | 41.02395 | -69.97731 | 36926 ft | 540 kts | 73° |
| 2026-05-09 12:25 | 41.03344 | -69.92912 | 37032 ft | 542 kts | 72° |
| 2026-05-09 12:25 | 41.05337 | -69.83347 | 37036 ft | 540 kts | 68° |
| 2026-05-09 12:26 | 41.08194 | -69.74217 | 37041 ft | 535 kts | 58° |
| 2026-05-09 12:26 | 41.12012 | -69.65905 | 37040 ft | 526 kts | 48° |
| 2026-05-09 12:27 | 41.16501 | -69.58260 | 37046 ft | 524 kts | 45° |
| 2026-05-09 12:27 | 41.21057 | -69.50691 | 37051 ft | 525 kts | 45° |
| 2026-05-09 12:28 | 41.25555 | -69.43130 | 37060 ft | 524 kts | 45° |
| 2026-05-09 12:28 | 41.30015 | -69.35565 | 37053 ft | 522 kts | 45° |
| 2026-05-09 12:29 | 41.34533 | -69.27890 | 37060 ft | 525 kts | 46° |
| 2026-05-09 12:29 | 41.38982 | -69.20290 | 37055 ft | 523 kts | 46° |
| 2026-05-09 12:30 | 41.43438 | -69.12671 | 37055 ft | 523 kts | 46° |
| 2026-05-09 12:30 | 41.50126 | -69.01196 | 37056 ft | 524 kts | 46° |
| 2026-05-09 12:31 | 41.56795 | -68.89708 | 37272 ft | 524 kts | 46° |
| 2026-05-09 12:32 | 41.61236 | -68.82029 | 37122 ft | 521 kts | 46° |
| 2026-05-09 12:32 | 41.65630 | -68.74422 | 37076 ft | 520 kts | 46° |
| 2026-05-09 12:33 | 41.70053 | -68.66737 | 37059 ft | 519 kts | 46° |
| 2026-05-09 12:33 | 41.74422 | -68.59131 | 37052 ft | 520 kts | 46° |
| 2026-05-09 12:34 | 41.78825 | -68.51450 | 37052 ft | 521 kts | 45° |
| 2026-05-09 12:34 | 41.83204 | -68.43782 | 37046 ft | 518 kts | 46° |
| 2026-05-09 12:35 | 41.87577 | -68.36115 | 37048 ft | 519 kts | 46° |
| 2026-05-09 12:35 | 41.91930 | -68.28463 | 37046 ft | 519 kts | 46° |
| 2026-05-09 12:36 | 41.96299 | -68.20760 | 37047 ft | 519 kts | 47° |
| 2026-05-09 12:36 | 42.00657 | -68.13052 | 37049 ft | 520 kts | 46° |
| 2026-05-09 12:37 | 42.05008 | -68.05339 | 37044 ft | 517 kts | 47° |
| 2026-05-09 12:37 | 42.09335 | -67.97656 | 37051 ft | 518 kts | 47° |
| 2026-05-09 12:38 | 42.13671 | -67.89929 | 37051 ft | 517 kts | 47° |
| 2026-05-09 12:38 | 42.17995 | -67.82207 | 37056 ft | 518 kts | 47° |
| 2026-05-09 12:39 | 42.22303 | -67.74495 | 37053 ft | 517 kts | 47° |
| 2026-05-09 12:39 | 42.26617 | -67.66755 | 37055 ft | 519 kts | 47° |
| 2026-05-09 12:40 | 42.30942 | -67.58965 | 37054 ft | 518 kts | 47° |
| 2026-05-09 12:40 | 42.35252 | -67.51189 | 37055 ft | 517 kts | 46° |
| 2026-05-09 12:41 | 42.39538 | -67.43436 | 37056 ft | 517 kts | 47° |
| 2026-05-09 12:41 | 42.43812 | -67.35686 | 37057 ft | 517 kts | 47° |
| 2026-05-09 12:42 | 42.48114 | -67.27867 | 37053 ft | 519 kts | 47° |
| 2026-05-09 12:42 | 42.52422 | -67.20003 | 37050 ft | 518 kts | 47° |
| 2026-05-09 12:43 | 42.56696 | -67.12194 | 37055 ft | 518 kts | 48° |
| 2026-05-09 12:43 | 42.60971 | -67.04359 | 37049 ft | 518 kts | 48° |
| 2026-05-09 12:44 | 42.65160 | -66.96448 | 37050 ft | 520 kts | 50° |
| 2026-05-09 12:44 | 42.69247 | -66.88319 | 37057 ft | 520 kts | 50° |
| 2026-05-09 12:45 | 42.73283 | -66.80237 | 37050 ft | 521 kts | 50° |
| 2026-05-09 12:45 | 42.77356 | -66.72078 | 37058 ft | 520 kts | 50° |
| 2026-05-09 12:46 | 42.81408 | -66.63950 | 37049 ft | 519 kts | 51° |
| 2026-05-09 12:46 | 42.85428 | -66.55868 | 37057 ft | 521 kts | 51° |
| 2026-05-09 12:47 | 42.89488 | -66.47677 | 37057 ft | 519 kts | 51° |
| 2026-05-09 12:47 | 42.93515 | -66.39538 | 37059 ft | 520 kts | 51° |
| 2026-05-09 12:48 | 42.97517 | -66.31423 | 37050 ft | 519 kts | 51° |
| 2026-05-09 12:48 | 43.01526 | -66.23275 | 37057 ft | 518 kts | 52° |
| 2026-05-09 12:49 | 43.05559 | -66.15056 | 37057 ft | 519 kts | 52° |
| 2026-05-09 12:49 | 43.09558 | -66.06878 | 37058 ft | 518 kts | 52° |
| 2026-05-09 12:50 | 43.13559 | -65.98681 | 37062 ft | 517 kts | 52° |
| 2026-05-09 12:50 | 43.17519 | -65.90534 | 37068 ft | 516 kts | 52° |
| 2026-05-09 12:51 | 43.21487 | -65.82359 | 37068 ft | 517 kts | 52° |
| 2026-05-09 12:51 | 43.25449 | -65.74171 | 37067 ft | 517 kts | 52° |
| 2026-05-09 12:52 | 43.29390 | -65.66004 | 37066 ft | 516 kts | 52° |
| 2026-05-09 12:52 | 43.33345 | -65.57778 | 37067 ft | 516 kts | 52° |
| 2026-05-09 12:53 | 43.37299 | -65.49543 | 37066 ft | 516 kts | 52° |
| 2026-05-09 12:53 | 43.41234 | -65.41316 | 37069 ft | 516 kts | 52° |
| 2026-05-09 12:54 | 43.45146 | -65.33115 | 37065 ft | 515 kts | 53° |
| 2026-05-09 12:54 | 43.49068 | -65.24876 | 37066 ft | 516 kts | 53° |
| 2026-05-09 12:55 | 43.52970 | -65.16650 | 37067 ft | 515 kts | 53° |
| 2026-05-09 12:55 | 43.56879 | -65.08389 | 37062 ft | 515 kts | 53° |
| 2026-05-09 12:56 | 43.60758 | -65.00169 | 37064 ft | 515 kts | 54° |
| 2026-05-09 12:56 | 43.64645 | -64.91904 | 37065 ft | 515 kts | 54° |
| 2026-05-09 12:57 | 43.68532 | -64.83618 | 37063 ft | 514 kts | 54° |
| 2026-05-09 12:57 | 43.72406 | -64.75339 | 37065 ft | 514 kts | 54° |
| 2026-05-09 12:58 | 43.76277 | -64.67038 | 37059 ft | 514 kts | 54° |
| 2026-05-09 12:58 | 43.80125 | -64.58765 | 37061 ft | 513 kts | 54° |
| 2026-05-09 12:59 | 43.83974 | -64.50472 | 37059 ft | 514 kts | 54° |
| 2026-05-09 12:59 | 43.87819 | -64.42158 | 37058 ft | 514 kts | 54° |
| 2026-05-09 13:00 | 43.91663 | -64.33823 | 37057 ft | 513 kts | 55° |
| 2026-05-09 13:00 | 43.95478 | -64.25530 | 37052 ft | 514 kts | 55° |
| 2026-05-09 13:01 | 43.99311 | -64.17172 | 37051 ft | 513 kts | 55° |
| 2026-05-09 13:01 | 44.03111 | -64.08861 | 37047 ft | 513 kts | 55° |
| 2026-05-09 13:02 | 44.06914 | -64.00515 | 37050 ft | 512 kts | 55° |
| 2026-05-09 13:02 | 44.10722 | -63.92138 | 37044 ft | 512 kts | 55° |
| 2026-05-09 13:03 | 44.14528 | -63.83744 | 37043 ft | 512 kts | 56° |
| 2026-05-09 13:03 | 44.18310 | -63.75377 | 37043 ft | 512 kts | 56° |
| 2026-05-09 13:04 | 44.22071 | -63.67033 | 37041 ft | 512 kts | 56° |
| 2026-05-09 13:04 | 44.25866 | -63.58590 | 37044 ft | 513 kts | 56° |
| 2026-05-09 13:05 | 44.29620 | -63.50206 | 37047 ft | 512 kts | 56° |
| 2026-05-09 13:05 | 44.33383 | -63.41785 | 37044 ft | 512 kts | 56° |
| 2026-05-09 13:06 | 44.37138 | -63.33356 | 37038 ft | 512 kts | 56° |
| 2026-05-09 13:06 | 44.40883 | -63.24927 | 37036 ft | 512 kts | 57° |
| 2026-05-09 13:07 | 44.44641 | -63.16442 | 37040 ft | 513 kts | 57° |
| 2026-05-09 13:07 | 44.48378 | -63.07977 | 37039 ft | 512 kts | 57° |
| 2026-05-09 13:08 | 44.52094 | -62.99534 | 37039 ft | 512 kts | 57° |
| 2026-05-09 13:08 | 44.55810 | -62.91068 | 37041 ft | 511 kts | 57° |
| 2026-05-09 13:09 | 44.59524 | -62.82584 | 37033 ft | 511 kts | 57° |
| 2026-05-09 13:09 | 44.63218 | -62.74118 | 37029 ft | 511 kts | 57° |
| 2026-05-09 13:10 | 44.66927 | -62.65591 | 37032 ft | 512 kts | 57° |
| 2026-05-09 13:10 | 44.70623 | -62.57070 | 37033 ft | 512 kts | 57° |
| 2026-05-09 13:11 | 44.74308 | -62.48550 | 37029 ft | 512 kts | 57° |
| 2026-05-09 13:11 | 44.78016 | -62.39952 | 37028 ft | 512 kts | 57° |
| 2026-05-09 13:12 | 44.81688 | -62.31408 | 37024 ft | 512 kts | 58° |
| 2026-05-09 13:12 | 44.85366 | -62.22826 | 37024 ft | 512 kts | 58° |
| 2026-05-09 13:13 | 44.89034 | -62.14242 | 37028 ft | 512 kts | 58° |
| 2026-05-09 13:13 | 44.92686 | -62.05668 | 37026 ft | 512 kts | 58° |
| 2026-05-09 13:14 | 44.96343 | -61.97056 | 37024 ft | 512 kts | 58° |
| 2026-05-09 13:16 | 45.10852 | -61.62631 | 37013 ft | 512 kts | 58° |
| 2026-05-09 13:16 | 45.14462 | -61.53999 | 37014 ft | 512 kts | 58° |
| 2026-05-09 13:17 | 45.18092 | -61.45296 | 37017 ft | 512 kts | 58° |
| 2026-05-09 13:17 | 45.21691 | -61.36637 | 37019 ft | 512 kts | 58° |
| 2026-05-09 13:18 | 45.25306 | -61.27914 | 37026 ft | 511 kts | 59° |
| 2026-05-09 13:18 | 45.28888 | -61.19243 | 37029 ft | 512 kts | 59° |
| 2026-05-09 13:19 | 45.32470 | -61.10548 | 37033 ft | 512 kts | 59° |
| 2026-05-09 13:19 | 45.36051 | -61.01823 | 37039 ft | 512 kts | 59° |
| 2026-05-09 13:20 | 45.39620 | -60.93105 | 37034 ft | 512 kts | 60° |
| 2026-05-09 13:20 | 45.43206 | -60.84314 | 37033 ft | 512 kts | 60° |
| 2026-05-09 13:21 | 45.46763 | -60.75566 | 37031 ft | 513 kts | 60° |
| 2026-05-09 13:21 | 45.50327 | -60.66774 | 37025 ft | 514 kts | 59° |
| 2026-05-09 13:22 | 45.53880 | -60.57983 | 37029 ft | 514 kts | 60° |
| 2026-05-09 13:22 | 45.57423 | -60.49190 | 37026 ft | 514 kts | 59° |
| 2026-05-09 13:23 | 45.66311 | -60.27010 | 37021 ft | 515 kts | 60° |
| 2026-05-09 13:24 | 45.69834 | -60.18167 | 37025 ft | 515 kts | 61° |
| 2026-05-09 13:24 | 45.73362 | -60.09280 | 37024 ft | 515 kts | 61° |
| 2026-05-09 13:25 | 45.76895 | -60.00354 | 37020 ft | 515 kts | 61° |
| 2026-05-09 13:26 | 45.82161 | -59.86998 | 37016 ft | 515 kts | 61° |
| 2026-05-09 13:26 | 45.85648 | -59.78116 | 37016 ft | 515 kts | 61° |
| 2026-05-09 13:27 | 45.89163 | -59.69138 | 37010 ft | 515 kts | 61° |
| 2026-05-09 13:27 | 45.92656 | -59.60184 | 37012 ft | 515 kts | 61° |
| 2026-05-09 13:28 | 45.96132 | -59.51244 | 37009 ft | 515 kts | 61° |
| 2026-05-09 13:28 | 45.99610 | -59.42270 | 37007 ft | 515 kts | 61° |
| 2026-05-09 13:29 | 46.03081 | -59.33290 | 37005 ft | 515 kts | 62° |
| 2026-05-09 13:29 | 46.06541 | -59.24298 | 37003 ft | 514 kts | 62° |
| 2026-05-09 13:30 | 46.09989 | -59.15310 | 37007 ft | 514 kts | 62° |
| 2026-05-09 13:30 | 46.13461 | -59.06239 | 37001 ft | 514 kts | 62° |
| 2026-05-09 13:31 | 46.16874 | -58.97292 | 37006 ft | 513 kts | 62° |
| 2026-05-09 13:31 | 46.20296 | -58.88285 | 37007 ft | 512 kts | 62° |
| 2026-05-09 13:32 | 46.23712 | -58.79264 | 37004 ft | 512 kts | 62° |
| 2026-05-09 13:32 | 46.28790 | -58.65799 | 37005 ft | 512 kts | 62° |
| 2026-05-09 13:33 | 46.32199 | -58.56721 | 37003 ft | 512 kts | 63° |
| 2026-05-09 13:33 | 46.35577 | -58.47699 | 37004 ft | 512 kts | 63° |
| 2026-05-09 13:34 | 46.38948 | -58.38665 | 37001 ft | 511 kts | 63° |
| 2026-05-09 13:34 | 46.42302 | -58.29649 | 36994 ft | 511 kts | 64° |
| 2026-05-09 13:35 | 46.45670 | -58.20560 | 36998 ft | 510 kts | 64° |
| 2026-05-09 13:35 | 46.49000 | -58.11541 | 36998 ft | 510 kts | 64° |
| 2026-05-09 13:36 | 46.52327 | -58.02506 | 36993 ft | 510 kts | 64° |
| 2026-05-09 13:36 | 46.55647 | -57.93454 | 36996 ft | 510 kts | 64° |
| 2026-05-09 13:37 | 46.58960 | -57.84396 | 36993 ft | 509 kts | 64° |
| 2026-05-09 13:37 | 46.62284 | -57.75275 | 36996 ft | 510 kts | 64° |
| 2026-05-09 13:38 | 46.65580 | -57.66206 | 36992 ft | 509 kts | 64° |
| 2026-05-09 13:38 | 46.68871 | -57.57110 | 36988 ft | 509 kts | 64° |
| 2026-05-09 13:39 | 46.72148 | -57.48025 | 36987 ft | 509 kts | 65° |
| 2026-05-09 13:39 | 46.75414 | -57.38939 | 36986 ft | 509 kts | 65° |
| 2026-05-09 13:40 | 46.78696 | -57.29778 | 36985 ft | 508 kts | 66° |
| 2026-05-09 13:40 | 46.81932 | -57.20718 | 36984 ft | 508 kts | 66° |
| 2026-05-09 13:41 | 46.85178 | -57.11594 | 36981 ft | 508 kts | 66° |
| 2026-05-09 13:41 | 46.88431 | -57.02420 | 36981 ft | 508 kts | 66° |
| 2026-05-09 13:42 | 46.91666 | -56.93263 | 36980 ft | 507 kts | 66° |
| 2026-05-09 13:42 | 46.94883 | -56.84125 | 36985 ft | 508 kts | 66° |
| 2026-05-09 13:43 | 46.98122 | -56.74890 | 36975 ft | 509 kts | 66° |
| 2026-05-09 13:43 | 47.01323 | -56.65736 | 36975 ft | 509 kts | 66° |
| 2026-05-09 13:44 | 47.04545 | -56.56493 | 36967 ft | 509 kts | 66° |
| 2026-05-09 13:44 | 47.07751 | -56.47263 | 36967 ft | 509 kts | 67° |
| 2026-05-09 13:45 | 47.10947 | -56.38023 | 36970 ft | 509 kts | 67° |
| 2026-05-09 13:45 | 47.14158 | -56.28720 | 36968 ft | 509 kts | 68° |
| 2026-05-09 13:46 | 47.17340 | -56.19452 | 36973 ft | 510 kts | 68° |
| 2026-05-09 13:46 | 47.20548 | -56.10080 | 36971 ft | 511 kts | 68° |
| 2026-05-09 13:47 | 47.23735 | -56.00738 | 36968 ft | 509 kts | 68° |
| 2026-05-09 13:47 | 47.26910 | -55.91396 | 36957 ft | 510 kts | 68° |
| 2026-05-09 13:48 | 47.30082 | -55.82028 | 36947 ft | 512 kts | 68° |
| 2026-05-09 13:48 | 47.33248 | -55.72649 | 36944 ft | 510 kts | 69° |
| 2026-05-09 13:49 | 47.36391 | -55.63299 | 36935 ft | 511 kts | 69° |
| 2026-05-09 13:49 | 47.39532 | -55.53928 | 36943 ft | 511 kts | 69° |
| 2026-05-09 13:50 | 47.42665 | -55.44544 | 36928 ft | 510 kts | 69° |
| 2026-05-09 13:50 | 47.45801 | -55.35113 | 36926 ft | 511 kts | 69° |
| 2026-05-09 13:51 | 47.48942 | -55.25639 | 36925 ft | 511 kts | 70° |
| 2026-05-09 13:51 | 47.52068 | -55.16172 | 36923 ft | 511 kts | 70° |
| 2026-05-09 13:52 | 47.55166 | -55.06747 | 36924 ft | 510 kts | 70° |
| 2026-05-09 13:52 | 47.58266 | -54.97295 | 36928 ft | 509 kts | 70° |
| 2026-05-09 13:53 | 47.61345 | -54.87865 | 36931 ft | 510 kts | 70° |
| 2026-05-09 13:53 | 47.64446 | -54.78333 | 36924 ft | 509 kts | 70° |
| 2026-05-09 13:54 | 47.67500 | -54.68907 | 36923 ft | 512 kts | 71° |
| 2026-05-09 13:54 | 47.70583 | -54.59365 | 36917 ft | 511 kts | 71° |
| 2026-05-09 13:55 | 47.73656 | -54.49804 | 36907 ft | 512 kts | 71° |
| 2026-05-09 13:55 | 47.76705 | -54.40300 | 36910 ft | 510 kts | 71° |
| 2026-05-09 13:56 | 47.79747 | -54.30778 | 36914 ft | 508 kts | 72° |
| 2026-05-09 13:56 | 47.82781 | -54.21239 | 36908 ft | 508 kts | 72° |
| 2026-05-09 13:57 | 47.85779 | -54.11772 | 36909 ft | 508 kts | 72° |
| 2026-05-09 13:57 | 47.88804 | -54.02198 | 36908 ft | 507 kts | 72° |
| 2026-05-09 13:58 | 47.91794 | -53.92684 | 36912 ft | 508 kts | 72° |
| 2026-05-09 13:58 | 47.94775 | -53.83163 | 36911 ft | 510 kts | 72° |
| 2026-05-09 13:59 | 47.97774 | -53.73559 | 36912 ft | 510 kts | 73° |
| 2026-05-09 13:59 | 48.00756 | -53.63972 | 36913 ft | 509 kts | 73° |
| 2026-05-09 14:00 | 48.02743 | -53.57567 | 36918 ft | 508 kts | 73° |
| 2026-05-09 14:00 | 48.06678 | -53.44817 | 36893 ft | 509 kts | 73° |
| 2026-05-09 14:01 | 48.09639 | -53.35181 | 36934 ft | 508 kts | 73° |
| 2026-05-09 14:01 | 48.12586 | -53.25568 | 36920 ft | 507 kts | 74° |
| 2026-05-09 14:02 | 48.15501 | -53.16005 | 36908 ft | 508 kts | 75° |
| 2026-05-09 14:02 | 48.18422 | -53.06398 | 36925 ft | 506 kts | 75° |
| 2026-05-09 14:03 | 48.21314 | -52.96838 | 36913 ft | 507 kts | 75° |
| 2026-05-09 14:03 | 48.24205 | -52.87246 | 36908 ft | 507 kts | 75° |
| 2026-05-09 14:04 | 48.27097 | -52.77607 | 36909 ft | 508 kts | 75° |
| 2026-05-09 14:04 | 48.29982 | -52.67971 | 36901 ft | 508 kts | 75° |
| 2026-05-09 14:05 | 48.32854 | -52.58336 | 36907 ft | 508 kts | 76° |
| 2026-05-09 14:05 | 48.35717 | -52.48703 | 36904 ft | 504 kts | 76° |
| 2026-05-09 14:06 | 48.38557 | -52.39088 | 36897 ft | 504 kts | 76° |
| 2026-05-09 14:06 | 48.41391 | -52.29458 | 36908 ft | 505 kts | 77° |
| 2026-05-09 14:07 | 48.44229 | -52.19798 | 36895 ft | 503 kts | 77° |
| 2026-05-09 14:07 | 48.47031 | -52.10189 | 37016 ft | 506 kts | 76° |
| 2026-05-09 14:08 | 48.48440 | -52.05349 | 37204 ft | 506 kts | 77° |
| 2026-05-09 14:08 | 48.49841 | -52.00512 | 37437 ft | 505 kts | 78° |
| 2026-05-09 14:08 | 48.51151 | -51.95646 | 37735 ft | 500 kts | 78° |
| 2026-05-09 14:08 | 48.52405 | -51.90831 | 37890 ft | 500 kts | 79° |
| 2026-05-09 14:09 | 48.54934 | -51.81044 | 37905 ft | 500 kts | 79° |
| 2026-05-09 14:09 | 48.57438 | -51.71328 | 37889 ft | 500 kts | 79° |
| 2026-05-09 14:10 | 48.61201 | -51.56694 | 37909 ft | 500 kts | 79° |
| 2026-05-09 14:11 | 48.63686 | -51.46974 | 37908 ft | 499 kts | 79° |
| 2026-05-09 14:11 | 48.66169 | -51.37217 | 37909 ft | 499 kts | 79° |
| 2026-05-09 14:12 | 48.68647 | -51.27458 | 37910 ft | 498 kts | 80° |
| 2026-05-09 14:12 | 48.71109 | -51.17713 | 37888 ft | 496 kts | 81° |
| 2026-05-09 14:13 | 48.73563 | -51.07935 | 37870 ft | 498 kts | 81° |
| 2026-05-09 14:15 | 48.83296 | -50.68790 | 37875 ft | 499 kts | 81° |
| 2026-05-09 14:15 | 48.85714 | -50.58948 | 37878 ft | 501 kts | 81° |
| 2026-05-09 14:16 | 48.88134 | -50.49088 | 37882 ft | 500 kts | 81° |
| 2026-05-09 14:16 | 48.90538 | -50.39228 | 37882 ft | 499 kts | 81° |
| 2026-05-09 14:17 | 48.92942 | -50.29316 | 37870 ft | 499 kts | 82° |
| 2026-05-09 14:17 | 48.95323 | -50.19468 | 37880 ft | 499 kts | 82° |
| 2026-05-09 14:18 | 48.97702 | -50.09577 | 37876 ft | 500 kts | 82° |
| 2026-05-09 14:18 | 49.00079 | -49.99641 | 37887 ft | 502 kts | 81° |
| 2026-05-09 14:19 | 49.02553 | -49.89728 | 37873 ft | 503 kts | 80° |
| 2026-05-09 14:19 | 49.05056 | -49.79826 | 37877 ft | 503 kts | 80° |
| 2026-05-09 14:20 | 49.07555 | -49.69863 | 37875 ft | 502 kts | 80° |
| 2026-05-09 14:20 | 49.10021 | -49.59963 | 37871 ft | 502 kts | 80° |
| 2026-05-09 14:21 | 49.13715 | -49.45042 | 37861 ft | 503 kts | 80° |
| 2026-05-09 14:21 | 49.16171 | -49.35054 | 37860 ft | 504 kts | 80° |
| 2026-05-09 14:22 | 49.18605 | -49.25139 | 37854 ft | 503 kts | 81° |
| 2026-05-09 14:22 | 49.21049 | -49.15118 | 37858 ft | 503 kts | 81° |
| 2026-05-09 14:23 | 49.23474 | -49.05123 | 37858 ft | 504 kts | 80° |
| 2026-05-09 14:23 | 49.25884 | -48.95168 | 37839 ft | 502 kts | 80° |
| 2026-05-09 14:24 | 49.28293 | -48.85135 | 37858 ft | 504 kts | 80° |
| 2026-05-09 14:24 | 49.30696 | -48.75114 | 37845 ft | 503 kts | 79° |
| 2026-05-09 14:25 | 49.33086 | -48.65088 | 37865 ft | 503 kts | 79° |
| 2026-05-09 14:25 | 49.35473 | -48.55018 | 37867 ft | 505 kts | 79° |
| 2026-05-09 14:26 | 49.37853 | -48.44958 | 37868 ft | 504 kts | 79° |
| 2026-05-09 14:26 | 49.40237 | -48.34807 | 37874 ft | 507 kts | 80° |
| 2026-05-09 14:27 | 49.42604 | -48.24717 | 37865 ft | 504 kts | 80° |
| 2026-05-09 14:27 | 49.44956 | -48.14611 | 37873 ft | 504 kts | 80° |
| 2026-05-09 14:28 | 49.47302 | -48.04482 | 37873 ft | 506 kts | 79° |
| 2026-05-09 14:28 | 49.48478 | -47.99401 | 38015 ft | 505 kts | 79° |
| 2026-05-09 14:28 | 49.49645 | -47.94350 | 37920 ft | 502 kts | 79° |
| 2026-05-09 14:29 | 49.51956 | -47.84297 | 37886 ft | 501 kts | 79° |
| 2026-05-09 14:29 | 49.54266 | -47.74169 | 37881 ft | 503 kts | 79° |
| 2026-05-09 14:30 | 49.56567 | -47.64058 | 37884 ft | 503 kts | 79° |
| 2026-05-09 14:30 | 49.58863 | -47.53923 | 37891 ft | 502 kts | 79° |
| 2026-05-09 14:31 | 49.61145 | -47.43798 | 37895 ft | 502 kts | 79° |
| 2026-05-09 14:31 | 49.63421 | -47.33646 | 37893 ft | 503 kts | 79° |
| 2026-05-09 14:32 | 49.65685 | -47.23502 | 37895 ft | 501 kts | 79° |
| 2026-05-09 14:32 | 49.67942 | -47.13340 | 37906 ft | 501 kts | 79° |
| 2026-05-09 14:33 | 49.70173 | -47.03255 | 37912 ft | 499 kts | 79° |
| 2026-05-09 14:33 | 49.72392 | -46.93155 | 37926 ft | 499 kts | 79° |
| 2026-05-09 14:34 | 49.74601 | -46.83058 | 37928 ft | 499 kts | 79° |
| 2026-05-09 14:34 | 49.76805 | -46.72945 | 37928 ft | 497 kts | 79° |
| 2026-05-09 14:35 | 49.78995 | -46.62835 | 37942 ft | 497 kts | 78° |
| 2026-05-09 14:35 | 49.81179 | -46.52713 | 37954 ft | 495 kts | 78° |
| 2026-05-09 14:36 | 49.83344 | -46.42630 | 37957 ft | 495 kts | 78° |
| 2026-05-09 14:36 | 49.85496 | -46.32548 | 37968 ft | 494 kts | 79° |
| 2026-05-09 14:37 | 49.87632 | -46.22507 | 37972 ft | 492 kts | 79° |
| 2026-05-09 14:37 | 49.89757 | -46.12450 | 37985 ft | 491 kts | 79° |
| 2026-05-09 14:38 | 49.91857 | -46.02467 | 37987 ft | 491 kts | 79° |
| 2026-05-09 14:38 | 49.93956 | -45.92437 | 37996 ft | 490 kts | 79° |
| 2026-05-09 14:39 | 49.96044 | -45.82407 | 37998 ft | 490 kts | 78° |
| 2026-05-09 14:39 | 49.98125 | -45.72362 | 38003 ft | 490 kts | 78° |
| 2026-05-09 14:40 | 50.00203 | -45.62295 | 38008 ft | 489 kts | 78° |
| 2026-05-09 14:40 | 50.02260 | -45.52266 | 38013 ft | 488 kts | 78° |
| 2026-05-09 14:41 | 50.04306 | -45.42244 | 38018 ft | 489 kts | 78° |
| 2026-05-09 14:41 | 50.06338 | -45.32242 | 38017 ft | 488 kts | 78° |
| 2026-05-09 14:42 | 50.08360 | -45.22237 | 38022 ft | 487 kts | 78° |
| 2026-05-09 14:42 | 50.10379 | -45.12194 | 38025 ft | 487 kts | 78° |
| 2026-05-09 14:43 | 50.12373 | -45.02224 | 38035 ft | 487 kts | 78° |
| 2026-05-09 14:43 | 50.14378 | -44.92153 | 38040 ft | 487 kts | 78° |
| 2026-05-09 14:44 | 50.16373 | -44.82076 | 38040 ft | 488 kts | 78° |
| 2026-05-09 14:44 | 50.18348 | -44.72048 | 38048 ft | 487 kts | 78° |
| 2026-05-09 14:45 | 50.20318 | -44.62001 | 38057 ft | 487 kts | 78° |
| 2026-05-09 14:45 | 50.22286 | -44.51898 | 38061 ft | 486 kts | 78° |
| 2026-05-09 14:46 | 50.24231 | -44.41872 | 38067 ft | 486 kts | 78° |
| 2026-05-09 14:46 | 50.26174 | -44.31793 | 38067 ft | 485 kts | 78° |
| 2026-05-09 14:47 | 50.28098 | -44.21763 | 38079 ft | 484 kts | 78° |
| 2026-05-09 14:47 | 50.30014 | -44.11722 | 38076 ft | 485 kts | 78° |
| 2026-05-09 14:48 | 50.31928 | -44.01633 | 38084 ft | 485 kts | 78° |
| 2026-05-09 14:48 | 50.33826 | -43.91571 | 38095 ft | 485 kts | 78° |
| 2026-05-09 14:49 | 50.35717 | -43.81509 | 38104 ft | 484 kts | 78° |
| 2026-05-09 14:49 | 50.37608 | -43.71377 | 38116 ft | 483 kts | 78° |
| 2026-05-09 14:50 | 50.39475 | -43.61330 | 38116 ft | 482 kts | 78° |
| 2026-05-09 14:50 | 50.41328 | -43.51302 | 38130 ft | 481 kts | 78° |
| 2026-05-09 14:51 | 50.43160 | -43.41327 | 38140 ft | 480 kts | 78° |
| 2026-05-09 14:51 | 50.44999 | -43.31261 | 38147 ft | 480 kts | 78° |
| 2026-05-09 14:52 | 50.46814 | -43.21279 | 38149 ft | 479 kts | 78° |
| 2026-05-09 14:52 | 50.48624 | -43.11256 | 38155 ft | 479 kts | 78° |
| 2026-05-09 14:53 | 50.50436 | -43.01180 | 38161 ft | 479 kts | 78° |
| 2026-05-09 14:53 | 50.52223 | -42.91185 | 38171 ft | 478 kts | 78° |
| 2026-05-09 14:54 | 50.53999 | -42.81193 | 38173 ft | 478 kts | 78° |
| 2026-05-09 14:54 | 50.55770 | -42.71169 | 38183 ft | 477 kts | 78° |
| 2026-05-09 14:55 | 50.57530 | -42.61153 | 38191 ft | 478 kts | 78° |
| 2026-05-09 14:55 | 50.59286 | -42.51105 | 38197 ft | 478 kts | 78° |
| 2026-05-09 14:56 | 50.61038 | -42.41021 | 38204 ft | 479 kts | 78° |
| 2026-05-09 14:56 | 50.62779 | -42.30954 | 38208 ft | 479 kts | 78° |
| 2026-05-09 14:57 | 50.64513 | -42.20863 | 38217 ft | 479 kts | 78° |
| 2026-05-09 14:57 | 50.66230 | -42.10807 | 38219 ft | 478 kts | 78° |
| 2026-05-09 14:58 | 50.67942 | -42.00724 | 38231 ft | 478 kts | 78° |
| 2026-05-09 14:58 | 50.69649 | -41.90612 | 38236 ft | 477 kts | 78° |
| 2026-05-09 14:59 | 50.71338 | -41.80559 | 38235 ft | 478 kts | 78° |
| 2026-05-09 14:59 | 50.73020 | -41.70478 | 38241 ft | 478 kts | 78° |
| 2026-05-09 15:00 | 50.74699 | -41.60358 | 38249 ft | 478 kts | 78° |
| 2026-05-09 15:00 | 50.76370 | -41.50219 | 38255 ft | 478 kts | 77° |
| 2026-05-09 15:01 | 50.78855 | -41.35042 | 38260 ft | 478 kts | 77° |
| 2026-05-09 15:02 | 50.80499 | -41.24925 | 38268 ft | 477 kts | 78° |
| 2026-05-09 15:02 | 50.82135 | -41.14802 | 38279 ft | 477 kts | 78° |
| 2026-05-09 15:03 | 50.83759 | -41.04680 | 38294 ft | 477 kts | 78° |
| 2026-05-09 15:03 | 50.85375 | -40.94551 | 38309 ft | 477 kts | 78° |
| 2026-05-09 15:04 | 50.86979 | -40.84436 | 38315 ft | 477 kts | 78° |
| 2026-05-09 15:06 | 50.93283 | -40.44060 | 38336 ft | 474 kts | 77° |
| 2026-05-09 15:06 | 50.94836 | -40.33967 | 38340 ft | 474 kts | 78° |
| 2026-05-09 15:07 | 50.96383 | -40.23846 | 38338 ft | 473 kts | 78° |
| 2026-05-09 15:07 | 50.97913 | -40.13781 | 38339 ft | 472 kts | 78° |
| 2026-05-09 15:08 | 50.99435 | -40.03685 | 38342 ft | 470 kts | 78° |
| 2026-05-09 15:08 | 51.01646 | -39.88600 | 38345 ft | 469 kts | 78° |
| 2026-05-09 15:10 | 51.07368 | -39.48385 | 38361 ft | 468 kts | 78° |
| 2026-05-09 15:11 | 51.08784 | -39.38278 | 38367 ft | 467 kts | 77° |
| 2026-05-09 15:11 | 51.10175 | -39.28283 | 38378 ft | 467 kts | 78° |
| 2026-05-09 15:12 | 51.11568 | -39.18202 | 38389 ft | 467 kts | 78° |
| 2026-05-09 15:12 | 51.12945 | -39.08185 | 38396 ft | 467 kts | 78° |
| 2026-05-09 15:13 | 51.14319 | -38.98116 | 38398 ft | 466 kts | 78° |
| 2026-05-09 15:13 | 51.15675 | -38.88114 | 38407 ft | 466 kts | 78° |
| 2026-05-09 15:14 | 51.17032 | -38.78030 | 38410 ft | 464 kts | 78° |
| 2026-05-09 15:14 | 51.18371 | -38.68012 | 38414 ft | 465 kts | 78° |
| 2026-05-09 15:15 | 51.19705 | -38.57952 | 38415 ft | 466 kts | 78° |
| 2026-05-09 15:15 | 51.21027 | -38.47897 | 38423 ft | 467 kts | 78° |
| 2026-05-09 15:16 | 51.22346 | -38.37810 | 38426 ft | 467 kts | 77° |
| 2026-05-09 15:16 | 51.23650 | -38.27736 | 38431 ft | 463 kts | 78° |
| 2026-05-09 15:17 | 51.24941 | -38.17755 | 38430 ft | 463 kts | 78° |
| 2026-05-09 15:17 | 51.26231 | -38.07695 | 38432 ft | 462 kts | 78° |
| 2026-05-09 15:18 | 51.27494 | -37.97751 | 38434 ft | 460 kts | 77° |
| 2026-05-09 15:18 | 51.28762 | -37.87716 | 38442 ft | 460 kts | 77° |
| 2026-05-09 15:19 | 51.30008 | -37.77769 | 38438 ft | 460 kts | 77° |
| 2026-05-09 15:19 | 51.31250 | -37.67773 | 38442 ft | 460 kts | 77° |
| 2026-05-09 15:20 | 51.33093 | -37.52808 | 38459 ft | 460 kts | 77° |
| 2026-05-09 15:21 | 51.34314 | -37.42807 | 38467 ft | 459 kts | 77° |
| 2026-05-09 15:21 | 51.35522 | -37.32839 | 38474 ft | 458 kts | 78° |
| 2026-05-09 15:22 | 51.36720 | -37.22879 | 38475 ft | 457 kts | 78° |
| 2026-05-09 15:22 | 51.37913 | -37.12877 | 38480 ft | 457 kts | 78° |
| 2026-05-09 15:23 | 51.39091 | -37.02930 | 38492 ft | 457 kts | 78° |
| 2026-05-09 15:23 | 51.40257 | -36.93001 | 38490 ft | 456 kts | 78° |
| 2026-05-09 15:24 | 51.41416 | -36.83047 | 38492 ft | 455 kts | 77° |
| 2026-05-09 15:24 | 51.42569 | -36.73095 | 38493 ft | 455 kts | 77° |
| 2026-05-09 15:25 | 51.43700 | -36.63231 | 38498 ft | 454 kts | 77° |
| 2026-05-09 15:25 | 51.44830 | -36.53326 | 38496 ft | 453 kts | 77° |
| 2026-05-09 15:26 | 51.46504 | -36.38481 | 38492 ft | 452 kts | 77° |
| 2026-05-09 15:26 | 51.47606 | -36.28595 | 38496 ft | 451 kts | 78° |
| 2026-05-09 15:27 | 51.48698 | -36.18743 | 38498 ft | 450 kts | 78° |
| 2026-05-09 15:27 | 51.49779 | -36.08898 | 38502 ft | 449 kts | 78° |
| 2026-05-09 15:28 | 51.50845 | -35.99119 | 38510 ft | 448 kts | 77° |
| 2026-05-09 15:28 | 51.51910 | -35.89285 | 38516 ft | 448 kts | 77° |
| 2026-05-09 15:29 | 51.52963 | -35.79462 | 38517 ft | 447 kts | 77° |
| 2026-05-09 15:29 | 51.54001 | -35.69673 | 38517 ft | 445 kts | 77° |
| 2026-05-09 15:30 | 51.55030 | -35.59927 | 38519 ft | 445 kts | 77° |
| 2026-05-09 15:30 | 51.56048 | -35.50190 | 38523 ft | 444 kts | 77° |
| 2026-05-09 15:31 | 51.57066 | -35.40382 | 38526 ft | 444 kts | 77° |
| 2026-05-09 15:31 | 51.58066 | -35.30654 | 38530 ft | 444 kts | 78° |
| 2026-05-09 15:32 | 51.59065 | -35.20875 | 38527 ft | 444 kts | 78° |
| 2026-05-09 15:32 | 51.60049 | -35.11130 | 38536 ft | 442 kts | 77° |
| 2026-05-09 15:33 | 51.61016 | -35.01475 | 38537 ft | 441 kts | 77° |
| 2026-05-09 15:33 | 51.61982 | -34.91751 | 38544 ft | 441 kts | 77° |
| 2026-05-09 15:34 | 51.62940 | -34.82030 | 38552 ft | 441 kts | 77° |
| 2026-05-09 15:34 | 51.63890 | -34.72299 | 38552 ft | 441 kts | 77° |
| 2026-05-09 15:35 | 51.64830 | -34.62566 | 38552 ft | 441 kts | 77° |
| 2026-05-09 15:35 | 51.65757 | -34.52895 | 38551 ft | 440 kts | 77° |
| 2026-05-09 15:36 | 51.66677 | -34.43222 | 38548 ft | 438 kts | 77° |
| 2026-05-09 15:36 | 51.67587 | -34.33569 | 38547 ft | 439 kts | 78° |
| 2026-05-09 15:37 | 51.68491 | -34.23868 | 38546 ft | 438 kts | 78° |
| 2026-05-09 15:37 | 51.69385 | -34.14204 | 38549 ft | 438 kts | 78° |
| 2026-05-09 15:38 | 51.70272 | -34.04524 | 38550 ft | 438 kts | 77° |
| 2026-05-09 15:38 | 51.71152 | -33.94821 | 38552 ft | 437 kts | 78° |
| 2026-05-09 15:39 | 51.72014 | -33.85210 | 38558 ft | 437 kts | 77° |
| 2026-05-09 15:39 | 51.72874 | -33.75555 | 38567 ft | 435 kts | 77° |
| 2026-05-09 15:40 | 51.73720 | -33.65949 | 38571 ft | 434 kts | 77° |
| 2026-05-09 15:40 | 51.74562 | -33.56319 | 38571 ft | 434 kts | 77° |
| 2026-05-09 15:41 | 51.75393 | -33.46708 | 38571 ft | 434 kts | 77° |
| 2026-05-09 15:41 | 51.76216 | -33.37091 | 38571 ft | 433 kts | 77° |
| 2026-05-09 15:42 | 51.77027 | -33.27523 | 38571 ft | 433 kts | 78° |
| 2026-05-09 15:42 | 51.77832 | -33.17933 | 38570 ft | 433 kts | 77° |
| 2026-05-09 15:43 | 51.78626 | -33.08366 | 38570 ft | 432 kts | 77° |
| 2026-05-09 15:43 | 51.79417 | -32.98768 | 38572 ft | 431 kts | 77° |
| 2026-05-09 15:44 | 51.80196 | -32.89202 | 38568 ft | 430 kts | 77° |
| 2026-05-09 15:44 | 51.80960 | -32.79702 | 38566 ft | 430 kts | 77° |
| 2026-05-09 15:45 | 51.81721 | -32.70152 | 38572 ft | 430 kts | 77° |
| 2026-05-09 15:45 | 51.82473 | -32.60637 | 38582 ft | 430 kts | 77° |
| 2026-05-09 15:46 | 51.83219 | -32.51086 | 38588 ft | 429 kts | 77° |
| 2026-05-09 15:46 | 51.83956 | -32.41548 | 38590 ft | 428 kts | 77° |
| 2026-05-09 15:47 | 51.84680 | -32.32067 | 38593 ft | 428 kts | 78° |
| 2026-05-09 15:47 | 51.85397 | -32.22585 | 38589 ft | 428 kts | 77° |
| 2026-05-09 15:48 | 51.86106 | -32.13075 | 38589 ft | 427 kts | 77° |
| 2026-05-09 15:48 | 51.86811 | -32.03555 | 38590 ft | 427 kts | 77° |
| 2026-05-09 15:49 | 51.87507 | -31.94047 | 38587 ft | 426 kts | 77° |
| 2026-05-09 15:49 | 51.88190 | -31.84585 | 38591 ft | 426 kts | 77° |
| 2026-05-09 15:50 | 51.88868 | -31.75097 | 38591 ft | 426 kts | 77° |
| 2026-05-09 15:50 | 51.89535 | -31.65656 | 38583 ft | 424 kts | 77° |
| 2026-05-09 15:51 | 51.90195 | -31.56213 | 38582 ft | 424 kts | 77° |
| 2026-05-09 15:51 | 51.90848 | -31.46728 | 38579 ft | 424 kts | 77° |
| 2026-05-09 15:52 | 51.91809 | -31.32578 | 38585 ft | 423 kts | 78° |
| 2026-05-09 15:53 | 51.92442 | -31.23136 | 38585 ft | 423 kts | 78° |
| 2026-05-09 15:53 | 51.93064 | -31.13721 | 38592 ft | 422 kts | 78° |
| 2026-05-09 15:54 | 51.93679 | -31.04309 | 38593 ft | 423 kts | 78° |
| 2026-05-09 15:54 | 51.94290 | -30.94843 | 38598 ft | 423 kts | 78° |
| 2026-05-09 15:55 | 51.94893 | -30.85368 | 38601 ft | 423 kts | 78° |
| 2026-05-09 15:55 | 51.95484 | -30.75958 | 38595 ft | 421 kts | 78° |
| 2026-05-09 15:56 | 51.96066 | -30.66568 | 38594 ft | 420 kts | 77° |
| 2026-05-09 15:56 | 51.96642 | -30.57189 | 38594 ft | 420 kts | 78° |
| 2026-05-09 15:57 | 51.97212 | -30.47772 | 38598 ft | 420 kts | 77° |
| 2026-05-09 15:57 | 51.97769 | -30.38424 | 38600 ft | 419 kts | 77° |
| 2026-05-09 15:58 | 51.98318 | -30.29091 | 38600 ft | 419 kts | 78° |
| 2026-05-09 15:58 | 51.98866 | -30.19694 | 38602 ft | 418 kts | 78° |
| 2026-05-09 15:59 | 51.99403 | -30.10347 | 38605 ft | 419 kts | 78° |
| 2026-05-09 15:59 | 51.99929 | -30.00987 | 38600 ft | 418 kts | 78° |
| 2026-05-09 16:00 | 52.00357 | -29.91603 | 38591 ft | 419 kts | 79° |
| 2026-05-09 16:00 | 52.00728 | -29.82195 | 38594 ft | 419 kts | 79° |
| 2026-05-09 16:01 | 52.01098 | -29.72840 | 38595 ft | 418 kts | 78° |
| 2026-05-09 16:01 | 52.01469 | -29.63424 | 38593 ft | 417 kts | 78° |
| 2026-05-09 16:02 | 52.01831 | -29.54100 | 38596 ft | 417 kts | 79° |
| 2026-05-09 16:02 | 52.02363 | -29.40063 | 38591 ft | 415 kts | 79° |
| 2026-05-09 16:03 | 52.02703 | -29.30785 | 38594 ft | 416 kts | 79° |
| 2026-05-09 16:03 | 52.03041 | -29.21441 | 38594 ft | 415 kts | 79° |
| 2026-05-09 16:04 | 52.03373 | -29.12081 | 38595 ft | 415 kts | 79° |
| 2026-05-09 16:04 | 52.03693 | -29.02794 | 38593 ft | 415 kts | 79° |
| 2026-05-09 16:05 | 52.04007 | -28.93515 | 38588 ft | 414 kts | 79° |
| 2026-05-09 16:05 | 52.04312 | -28.84227 | 38588 ft | 414 kts | 79° |
| 2026-05-09 16:06 | 52.04613 | -28.74907 | 38585 ft | 414 kts | 79° |
| 2026-05-09 16:06 | 52.04903 | -28.65624 | 38591 ft | 414 kts | 79° |
| 2026-05-09 16:07 | 52.05188 | -28.56341 | 38593 ft | 412 kts | 79° |
| 2026-05-09 16:07 | 52.05464 | -28.47058 | 38590 ft | 412 kts | 79° |
| 2026-05-09 16:08 | 52.05731 | -28.37848 | 38589 ft | 411 kts | 79° |
| 2026-05-09 16:08 | 52.05991 | -28.28625 | 38591 ft | 411 kts | 79° |
| 2026-05-09 16:09 | 52.06245 | -28.19359 | 38589 ft | 411 kts | 79° |
| 2026-05-09 16:09 | 52.06492 | -28.10122 | 38587 ft | 409 kts | 79° |
| 2026-05-09 16:10 | 52.06730 | -28.00905 | 38594 ft | 408 kts | 79° |
| 2026-05-09 16:10 | 52.06960 | -27.91711 | 38590 ft | 409 kts | 79° |
| 2026-05-09 16:11 | 52.07185 | -27.82528 | 38588 ft | 408 kts | 79° |
| 2026-05-09 16:11 | 52.07401 | -27.73370 | 38583 ft | 408 kts | 79° |
| 2026-05-09 16:12 | 52.07595 | -27.64779 | 38578 ft | 407 kts | 79° |
| 2026-05-09 16:12 | 52.07723 | -27.59020 | 38572 ft | 406 kts | 79° |